sensor_id;sensor_type;location;lat;lon;timestamp;P1;durP1;ratioP1;P2;durP2;ratioP2
18142;SDS011;9197;50.930;3.140;2022-08-03T00:00:58;6.45;;;2.50;;
18142;SDS011;9197;50.930;3.140;2022-08-03T00:03:25;4.70;;;2.42;;
18142;SDS011;9197;50.930;3.140;2022-08-03T00:05:52;6.45;;;2.90;;
18142;SDS011;9197;50.930;3.140;2022-08-03T00:08:20;3.58;;;2.10;;
18142;SDS011;9197;50.930;3.140;2022-08-03T00:10:47;7.75;;;2.55;;
18142;SDS011;9197;50.930;3.140;2022-08-03T00:13:14;6.45;;;2.50;;
18142;SDS011;9197;50.930;3.140;2022-08-03T00:15:43;6.22;;;2.20;;
18142;SDS011;9197;50.930;3.140;2022-08-03T00:18:12;6.78;;;2.60;;
18142;SDS011;9197;50.930;3.140;2022-08-03T00:20:39;10.57;;;3.13;;
18142;SDS011;9197;50.930;3.140;2022-08-03T00:23:06;6.05;;;2.38;;
18142;SDS011;9197;50.930;3.140;2022-08-03T00:25:34;4.40;;;2.97;;
18142;SDS011;9197;50.930;3.140;2022-08-03T00:28:02;7.00;;;2.50;;
18142;SDS011;9197;50.930;3.140;2022-08-03T00:30:29;6.03;;;3.03;;
18142;SDS011;9197;50.930;3.140;2022-08-03T00:32:57;7.72;;;2.58;;
18142;SDS011;9197;50.930;3.140;2022-08-03T00:35:26;4.70;;;2.10;;
18142;SDS011;9197;50.930;3.140;2022-08-03T00:37:53;7.68;;;2.50;;
18142;SDS011;9197;50.930;3.140;2022-08-03T00:40:20;9.98;;;2.95;;
18142;SDS011;9197;50.930;3.140;2022-08-03T00:42:49;4.63;;;2.38;;
18142;SDS011;9197;50.930;3.140;2022-08-03T00:45:17;10.90;;;2.80;;
18142;SDS011;9197;50.930;3.140;2022-08-03T00:47:45;6.18;;;3.00;;
18142;SDS011;9197;50.930;3.140;2022-08-03T00:50:12;5.47;;;2.90;;
18142;SDS011;9197;50.930;3.140;2022-08-03T00:52:41;5.82;;;2.95;;
18142;SDS011;9197;50.930;3.140;2022-08-03T00:55:08;5.22;;;2.72;;
18142;SDS011;9197;50.930;3.140;2022-08-03T00:57:36;4.88;;;2.55;;
18142;SDS011;9197;50.930;3.140;2022-08-03T01:00:04;7.32;;;2.70;;
18142;SDS011;9197;50.930;3.140;2022-08-03T01:02:31;7.05;;;3.20;;
18142;SDS011;9197;50.930;3.140;2022-08-03T01:04:59;5.78;;;2.65;;
18142;SDS011;9197;50.930;3.140;2022-08-03T01:07:28;9.82;;;2.70;;
18142;SDS011;9197;50.930;3.140;2022-08-03T01:10:02;4.13;;;2.63;;
18142;SDS011;9197;50.930;3.140;2022-08-03T01:12:31;4.22;;;2.45;;
18142;SDS011;9197;50.930;3.140;2022-08-03T01:15:02;5.47;;;3.08;;
18142;SDS011;9197;50.930;3.140;2022-08-03T01:17:33;5.20;;;2.45;;
18142;SDS011;9197;50.930;3.140;2022-08-03T01:20:03;6.72;;;2.67;;
18142;SDS011;9197;50.930;3.140;2022-08-03T01:22:37;10.23;;;2.80;;
18142;SDS011;9197;50.930;3.140;2022-08-03T01:25:09;2.85;;;2.42;;
18142;SDS011;9197;50.930;3.140;2022-08-03T01:27:42;7.03;;;2.83;;
18142;SDS011;9197;50.930;3.140;2022-08-03T01:30:14;3.97;;;2.33;;
18142;SDS011;9197;50.930;3.140;2022-08-03T01:32:42;6.55;;;2.45;;
18142;SDS011;9197;50.930;3.140;2022-08-03T01:35:12;5.68;;;2.92;;
18142;SDS011;9197;50.930;3.140;2022-08-03T01:37:42;5.68;;;2.63;;
18142;SDS011;9197;50.930;3.140;2022-08-03T01:40:11;8.35;;;3.05;;
18142;SDS011;9197;50.930;3.140;2022-08-03T01:42:39;3.22;;;2.20;;
18142;SDS011;9197;50.930;3.140;2022-08-03T01:45:08;5.55;;;3.20;;
18142;SDS011;9197;50.930;3.140;2022-08-03T01:47:37;6.03;;;2.63;;
18142;SDS011;9197;50.930;3.140;2022-08-03T01:50:05;6.97;;;3.05;;
18142;SDS011;9197;50.930;3.140;2022-08-03T01:52:33;6.63;;;3.42;;
18142;SDS011;9197;50.930;3.140;2022-08-03T01:55:01;8.50;;;2.58;;
18142;SDS011;9197;50.930;3.140;2022-08-03T01:57:28;5.45;;;2.47;;
18142;SDS011;9197;50.930;3.140;2022-08-03T01:59:58;3.83;;;2.67;;
18142;SDS011;9197;50.930;3.140;2022-08-03T02:02:26;6.07;;;2.97;;
18142;SDS011;9197;50.930;3.140;2022-08-03T02:04:56;9.02;;;3.00;;
18142;SDS011;9197;50.930;3.140;2022-08-03T02:07:23;8.55;;;3.30;;
18142;SDS011;9197;50.930;3.140;2022-08-03T02:09:52;8.27;;;3.10;;
18142;SDS011;9197;50.930;3.140;2022-08-03T02:12:20;5.25;;;2.80;;
18142;SDS011;9197;50.930;3.140;2022-08-03T02:14:48;5.38;;;2.63;;
18142;SDS011;9197;50.930;3.140;2022-08-03T02:17:15;8.90;;;3.38;;
18142;SDS011;9197;50.930;3.140;2022-08-03T02:19:43;5.82;;;3.17;;
18142;SDS011;9197;50.930;3.140;2022-08-03T02:22:12;8.98;;;3.35;;
18142;SDS011;9197;50.930;3.140;2022-08-03T02:24:40;9.73;;;3.35;;
18142;SDS011;9197;50.930;3.140;2022-08-03T02:27:09;4.13;;;2.30;;
18142;SDS011;9197;50.930;3.140;2022-08-03T02:29:39;8.30;;;2.63;;
18142;SDS011;9197;50.930;3.140;2022-08-03T02:32:08;8.05;;;3.95;;
18142;SDS011;9197;50.930;3.140;2022-08-03T02:34:36;7.20;;;2.78;;
18142;SDS011;9197;50.930;3.140;2022-08-03T02:37:03;6.85;;;2.63;;
18142;SDS011;9197;50.930;3.140;2022-08-03T02:39:33;6.97;;;2.72;;
18142;SDS011;9197;50.930;3.140;2022-08-03T02:42:01;8.80;;;3.47;;
18142;SDS011;9197;50.930;3.140;2022-08-03T02:44:29;7.43;;;2.88;;
18142;SDS011;9197;50.930;3.140;2022-08-03T02:46:59;6.15;;;2.60;;
18142;SDS011;9197;50.930;3.140;2022-08-03T02:49:27;5.28;;;2.58;;
18142;SDS011;9197;50.930;3.140;2022-08-03T02:51:55;5.65;;;3.28;;
18142;SDS011;9197;50.930;3.140;2022-08-03T02:54:23;4.63;;;2.30;;
18142;SDS011;9197;50.930;3.140;2022-08-03T02:56:53;3.65;;;2.83;;
18142;SDS011;9197;50.930;3.140;2022-08-03T02:59:22;6.53;;;3.13;;
18142;SDS011;9197;50.930;3.140;2022-08-03T03:01:50;7.75;;;3.03;;
18142;SDS011;9197;50.930;3.140;2022-08-03T03:04:19;8.82;;;3.10;;
18142;SDS011;9197;50.930;3.140;2022-08-03T03:06:47;14.13;;;3.47;;
18142;SDS011;9197;50.930;3.140;2022-08-03T03:09:14;5.40;;;2.50;;
18142;SDS011;9197;50.930;3.140;2022-08-03T03:11:42;7.05;;;2.95;;
18142;SDS011;9197;50.930;3.140;2022-08-03T03:14:11;5.23;;;2.40;;
18142;SDS011;9197;50.930;3.140;2022-08-03T03:16:39;5.13;;;3.17;;
18142;SDS011;9197;50.930;3.140;2022-08-03T03:19:06;5.20;;;2.97;;
18142;SDS011;9197;50.930;3.140;2022-08-03T03:21:34;6.47;;;2.87;;
18142;SDS011;9197;50.930;3.140;2022-08-03T03:24:02;6.40;;;3.22;;
18142;SDS011;9197;50.930;3.140;2022-08-03T03:26:30;10.50;;;3.40;;
18142;SDS011;9197;50.930;3.140;2022-08-03T03:28:58;3.95;;;3.38;;
18142;SDS011;9197;50.930;3.140;2022-08-03T03:31:26;9.10;;;3.05;;
18142;SDS011;9197;50.930;3.140;2022-08-03T03:33:54;6.68;;;3.60;;
18142;SDS011;9197;50.930;3.140;2022-08-03T03:36:22;5.70;;;3.33;;
18142;SDS011;9197;50.930;3.140;2022-08-03T03:38:49;7.80;;;4.15;;
18142;SDS011;9197;50.930;3.140;2022-08-03T03:41:17;7.63;;;3.30;;
18142;SDS011;9197;50.930;3.140;2022-08-03T03:43:44;6.70;;;3.40;;
18142;SDS011;9197;50.930;3.140;2022-08-03T03:46:11;11.85;;;4.03;;
18142;SDS011;9197;50.930;3.140;2022-08-03T03:48:40;4.57;;;3.05;;
18142;SDS011;9197;50.930;3.140;2022-08-03T03:51:07;5.50;;;3.60;;
18142;SDS011;9197;50.930;3.140;2022-08-03T03:53:35;11.93;;;4.43;;
18142;SDS011;9197;50.930;3.140;2022-08-03T03:56:03;11.00;;;3.80;;
18142;SDS011;9197;50.930;3.140;2022-08-03T03:58:30;6.23;;;3.90;;
18142;SDS011;9197;50.930;3.140;2022-08-03T04:00:58;6.32;;;4.07;;
18142;SDS011;9197;50.930;3.140;2022-08-03T04:03:25;5.72;;;3.40;;
18142;SDS011;9197;50.930;3.140;2022-08-03T04:05:53;10.37;;;4.10;;
18142;SDS011;9197;50.930;3.140;2022-08-03T04:08:39;8.32;;;3.67;;
18142;SDS011;9197;50.930;3.140;2022-08-03T04:11:39;12.88;;;4.45;;
18142;SDS011;9197;50.930;3.140;2022-08-03T04:14:08;9.27;;;3.80;;
18142;SDS011;9197;50.930;3.140;2022-08-03T04:16:36;10.52;;;3.58;;
18142;SDS011;9197;50.930;3.140;2022-08-03T04:19:07;8.95;;;4.43;;
18142;SDS011;9197;50.930;3.140;2022-08-03T04:21:37;8.97;;;3.43;;
18142;SDS011;9197;50.930;3.140;2022-08-03T04:24:07;7.27;;;3.40;;
18142;SDS011;9197;50.930;3.140;2022-08-03T04:26:35;9.67;;;3.07;;
18142;SDS011;9197;50.930;3.140;2022-08-03T04:29:03;9.60;;;3.25;;
18142;SDS011;9197;50.930;3.140;2022-08-03T04:31:31;6.80;;;3.42;;
18142;SDS011;9197;50.930;3.140;2022-08-03T04:33:58;9.17;;;3.83;;
18142;SDS011;9197;50.930;3.140;2022-08-03T04:36:26;5.80;;;3.23;;
18142;SDS011;9197;50.930;3.140;2022-08-03T04:38:59;11.93;;;3.97;;
18142;SDS011;9197;50.930;3.140;2022-08-03T04:41:28;9.90;;;3.90;;
18142;SDS011;9197;50.930;3.140;2022-08-03T04:43:56;8.07;;;3.55;;
18142;SDS011;9197;50.930;3.140;2022-08-03T04:46:25;11.37;;;4.00;;
18142;SDS011;9197;50.930;3.140;2022-08-03T04:48:52;10.87;;;3.80;;
18142;SDS011;9197;50.930;3.140;2022-08-03T04:51:20;10.75;;;3.75;;
18142;SDS011;9197;50.930;3.140;2022-08-03T04:53:47;8.45;;;3.75;;
18142;SDS011;9197;50.930;3.140;2022-08-03T04:56:16;8.75;;;3.38;;
18142;SDS011;9197;50.930;3.140;2022-08-03T04:58:43;9.10;;;3.83;;
18142;SDS011;9197;50.930;3.140;2022-08-03T05:01:10;7.18;;;3.58;;
18142;SDS011;9197;50.930;3.140;2022-08-03T05:03:38;10.88;;;4.22;;
18142;SDS011;9197;50.930;3.140;2022-08-03T05:06:05;12.90;;;4.05;;
18142;SDS011;9197;50.930;3.140;2022-08-03T05:08:32;6.72;;;3.67;;
18142;SDS011;9197;50.930;3.140;2022-08-03T05:10:59;7.32;;;4.18;;
18142;SDS011;9197;50.930;3.140;2022-08-03T05:13:28;10.05;;;3.88;;
18142;SDS011;9197;50.930;3.140;2022-08-03T05:15:55;9.48;;;3.60;;
18142;SDS011;9197;50.930;3.140;2022-08-03T05:18:22;10.00;;;3.30;;
18142;SDS011;9197;50.930;3.140;2022-08-03T05:20:50;8.45;;;3.70;;
18142;SDS011;9197;50.930;3.140;2022-08-03T05:23:17;6.30;;;3.45;;
18142;SDS011;9197;50.930;3.140;2022-08-03T05:25:44;11.73;;;3.83;;
18142;SDS011;9197;50.930;3.140;2022-08-03T05:28:11;8.90;;;4.10;;
18142;SDS011;9197;50.930;3.140;2022-08-03T05:30:40;5.18;;;3.72;;
18142;SDS011;9197;50.930;3.140;2022-08-03T05:33:07;6.65;;;3.50;;
18142;SDS011;9197;50.930;3.140;2022-08-03T05:35:35;9.95;;;3.53;;
18142;SDS011;9197;50.930;3.140;2022-08-03T05:38:03;13.57;;;3.60;;
18142;SDS011;9197;50.930;3.140;2022-08-03T05:40:30;9.75;;;3.90;;
18142;SDS011;9197;50.930;3.140;2022-08-03T05:42:58;9.68;;;3.45;;
18142;SDS011;9197;50.930;3.140;2022-08-03T05:45:25;8.50;;;3.63;;
18142;SDS011;9197;50.930;3.140;2022-08-03T05:47:54;8.68;;;3.78;;
18142;SDS011;9197;50.930;3.140;2022-08-03T05:50:21;8.15;;;3.28;;
18142;SDS011;9197;50.930;3.140;2022-08-03T05:52:49;10.32;;;3.35;;
18142;SDS011;9197;50.930;3.140;2022-08-03T05:55:16;7.43;;;3.65;;
18142;SDS011;9197;50.930;3.140;2022-08-03T05:57:44;12.40;;;3.63;;
18142;SDS011;9197;50.930;3.140;2022-08-03T06:00:12;7.68;;;2.97;;
18142;SDS011;9197;50.930;3.140;2022-08-03T06:02:40;8.23;;;3.67;;
18142;SDS011;9197;50.930;3.140;2022-08-03T06:05:09;7.82;;;3.35;;
18142;SDS011;9197;50.930;3.140;2022-08-03T06:07:36;7.18;;;3.00;;
18142;SDS011;9197;50.930;3.140;2022-08-03T06:10:04;10.45;;;3.33;;
18142;SDS011;9197;50.930;3.140;2022-08-03T06:12:31;9.75;;;3.33;;
18142;SDS011;9197;50.930;3.140;2022-08-03T06:15:00;8.45;;;3.40;;
18142;SDS011;9197;50.930;3.140;2022-08-03T06:17:27;13.90;;;3.65;;
18142;SDS011;9197;50.930;3.140;2022-08-03T06:19:55;7.50;;;3.38;;
18142;SDS011;9197;50.930;3.140;2022-08-03T06:22:23;15.10;;;3.50;;
18142;SDS011;9197;50.930;3.140;2022-08-03T06:24:51;10.30;;;3.42;;
18142;SDS011;9197;50.930;3.140;2022-08-03T06:27:18;14.25;;;3.70;;
18142;SDS011;9197;50.930;3.140;2022-08-03T06:29:45;7.80;;;2.65;;
18142;SDS011;9197;50.930;3.140;2022-08-03T06:32:12;7.60;;;3.17;;
18142;SDS011;9197;50.930;3.140;2022-08-03T06:34:40;7.55;;;3.05;;
18142;SDS011;9197;50.930;3.140;2022-08-03T06:37:07;10.77;;;3.47;;
18142;SDS011;9197;50.930;3.140;2022-08-03T06:39:37;12.20;;;3.33;;
18142;SDS011;9197;50.930;3.140;2022-08-03T06:42:04;9.98;;;3.45;;
18142;SDS011;9197;50.930;3.140;2022-08-03T06:44:31;8.45;;;3.10;;
18142;SDS011;9197;50.930;3.140;2022-08-03T06:46:59;6.10;;;3.47;;
18142;SDS011;9197;50.930;3.140;2022-08-03T06:49:26;10.40;;;3.72;;
18142;SDS011;9197;50.930;3.140;2022-08-03T06:51:53;13.88;;;3.83;;
18142;SDS011;9197;50.930;3.140;2022-08-03T06:54:21;11.60;;;3.63;;
18142;SDS011;9197;50.930;3.140;2022-08-03T06:56:50;15.85;;;4.05;;
18142;SDS011;9197;50.930;3.140;2022-08-03T06:59:18;14.30;;;3.35;;
18142;SDS011;9197;50.930;3.140;2022-08-03T07:01:45;12.98;;;2.90;;
18142;SDS011;9197;50.930;3.140;2022-08-03T07:04:12;12.45;;;3.42;;
18142;SDS011;9197;50.930;3.140;2022-08-03T07:06:39;10.95;;;2.78;;
18142;SDS011;9197;50.930;3.140;2022-08-03T07:09:07;12.35;;;2.88;;
18142;SDS011;9197;50.930;3.140;2022-08-03T07:11:34;10.88;;;2.95;;
18142;SDS011;9197;50.930;3.140;2022-08-03T07:14:02;9.93;;;2.92;;
18142;SDS011;9197;50.930;3.140;2022-08-03T07:16:30;10.13;;;2.55;;
18142;SDS011;9197;50.930;3.140;2022-08-03T07:18:57;11.68;;;3.35;;
18142;SDS011;9197;50.930;3.140;2022-08-03T07:21:24;9.27;;;2.97;;
18142;SDS011;9197;50.930;3.140;2022-08-03T07:23:51;9.77;;;2.80;;
18142;SDS011;9197;50.930;3.140;2022-08-03T07:26:18;14.40;;;2.83;;
18142;SDS011;9197;50.930;3.140;2022-08-03T07:28:46;18.90;;;4.95;;
18142;SDS011;9197;50.930;3.140;2022-08-03T07:31:14;17.70;;;3.10;;
18142;SDS011;9197;50.930;3.140;2022-08-03T07:33:41;9.20;;;2.67;;
18142;SDS011;9197;50.930;3.140;2022-08-03T07:36:11;14.23;;;3.53;;
18142;SDS011;9197;50.930;3.140;2022-08-03T07:38:38;12.65;;;3.47;;
18142;SDS011;9197;50.930;3.140;2022-08-03T07:41:05;11.13;;;3.45;;
18142;SDS011;9197;50.930;3.140;2022-08-03T07:43:32;8.30;;;2.75;;
18142;SDS011;9197;50.930;3.140;2022-08-03T07:45:59;10.43;;;3.38;;
18142;SDS011;9197;50.930;3.140;2022-08-03T07:48:28;10.30;;;3.45;;
18142;SDS011;9197;50.930;3.140;2022-08-03T07:50:55;9.23;;;2.95;;
18142;SDS011;9197;50.930;3.140;2022-08-03T07:53:22;9.20;;;2.97;;
18142;SDS011;9197;50.930;3.140;2022-08-03T07:55:50;9.75;;;2.97;;
18142;SDS011;9197;50.930;3.140;2022-08-03T07:58:17;10.52;;;3.65;;
18142;SDS011;9197;50.930;3.140;2022-08-03T08:00:46;9.70;;;3.63;;
18142;SDS011;9197;50.930;3.140;2022-08-03T08:03:15;9.80;;;2.97;;
18142;SDS011;9197;50.930;3.140;2022-08-03T08:05:44;12.77;;;3.15;;
18142;SDS011;9197;50.930;3.140;2022-08-03T08:08:11;11.43;;;3.53;;
18142;SDS011;9197;50.930;3.140;2022-08-03T08:10:39;8.73;;;3.03;;
18142;SDS011;9197;50.930;3.140;2022-08-03T08:13:06;12.88;;;3.22;;
18142;SDS011;9197;50.930;3.140;2022-08-03T08:15:33;11.27;;;3.70;;
18142;SDS011;9197;50.930;3.140;2022-08-03T08:18:00;10.63;;;3.63;;
18142;SDS011;9197;50.930;3.140;2022-08-03T08:20:28;12.90;;;3.33;;
18142;SDS011;9197;50.930;3.140;2022-08-03T08:22:57;17.27;;;3.50;;
18142;SDS011;9197;50.930;3.140;2022-08-03T08:25:25;10.82;;;2.97;;
18142;SDS011;9197;50.930;3.140;2022-08-03T08:27:52;8.35;;;3.38;;
18142;SDS011;9197;50.930;3.140;2022-08-03T08:30:20;11.38;;;3.67;;
18142;SDS011;9197;50.930;3.140;2022-08-03T08:32:48;11.38;;;3.42;;
18142;SDS011;9197;50.930;3.140;2022-08-03T08:35:15;12.38;;;3.85;;
18142;SDS011;9197;50.930;3.140;2022-08-03T08:37:43;17.20;;;3.47;;
18142;SDS011;9197;50.930;3.140;2022-08-03T08:40:11;8.75;;;2.60;;
18142;SDS011;9197;50.930;3.140;2022-08-03T08:42:39;15.73;;;3.33;;
18142;SDS011;9197;50.930;3.140;2022-08-03T08:45:07;11.63;;;2.95;;
18142;SDS011;9197;50.930;3.140;2022-08-03T08:47:36;13.43;;;3.85;;
18142;SDS011;9197;50.930;3.140;2022-08-03T08:50:04;9.90;;;2.63;;
18142;SDS011;9197;50.930;3.140;2022-08-03T08:52:32;13.07;;;3.95;;
18142;SDS011;9197;50.930;3.140;2022-08-03T08:55:01;13.15;;;3.15;;
18142;SDS011;9197;50.930;3.140;2022-08-03T08:57:31;7.65;;;3.00;;
18142;SDS011;9197;50.930;3.140;2022-08-03T08:59:59;11.77;;;3.10;;
18142;SDS011;9197;50.930;3.140;2022-08-03T09:02:28;11.95;;;3.63;;
18142;SDS011;9197;50.930;3.140;2022-08-03T09:04:56;7.95;;;3.38;;
18142;SDS011;9197;50.930;3.140;2022-08-03T09:07:23;12.80;;;3.85;;
18142;SDS011;9197;50.930;3.140;2022-08-03T09:09:51;12.32;;;3.72;;
18142;SDS011;9197;50.930;3.140;2022-08-03T09:12:18;10.20;;;2.95;;
18142;SDS011;9197;50.930;3.140;2022-08-03T09:14:46;9.27;;;3.55;;
18142;SDS011;9197;50.930;3.140;2022-08-03T09:17:14;12.60;;;3.60;;
18142;SDS011;9197;50.930;3.140;2022-08-03T09:19:41;13.52;;;3.50;;
18142;SDS011;9197;50.930;3.140;2022-08-03T09:22:09;10.70;;;3.63;;
18142;SDS011;9197;50.930;3.140;2022-08-03T09:24:37;9.40;;;3.95;;
18142;SDS011;9197;50.930;3.140;2022-08-03T09:27:05;11.15;;;3.60;;
18142;SDS011;9197;50.930;3.140;2022-08-03T09:29:33;7.80;;;2.50;;
18142;SDS011;9197;50.930;3.140;2022-08-03T09:32:02;7.10;;;3.13;;
18142;SDS011;9197;50.930;3.140;2022-08-03T09:34:31;11.20;;;3.50;;
18142;SDS011;9197;50.930;3.140;2022-08-03T09:36:58;8.15;;;3.40;;
18142;SDS011;9197;50.930;3.140;2022-08-03T09:39:26;10.43;;;3.50;;
18142;SDS011;9197;50.930;3.140;2022-08-03T09:42:06;13.40;;;3.33;;
18142;SDS011;9197;50.930;3.140;2022-08-03T09:44:34;7.32;;;3.38;;
18142;SDS011;9197;50.930;3.140;2022-08-03T09:47:03;11.10;;;3.45;;
18142;SDS011;9197;50.930;3.140;2022-08-03T09:49:31;6.60;;;3.03;;
18142;SDS011;9197;50.930;3.140;2022-08-03T09:52:00;6.68;;;3.00;;
18142;SDS011;9197;50.930;3.140;2022-08-03T09:54:28;12.02;;;3.75;;
18142;SDS011;9197;50.930;3.140;2022-08-03T09:56:56;6.60;;;3.08;;
18142;SDS011;9197;50.930;3.140;2022-08-03T09:59:24;6.68;;;3.15;;
18142;SDS011;9197;50.930;3.140;2022-08-03T10:01:53;8.65;;;3.15;;
18142;SDS011;9197;50.930;3.140;2022-08-03T10:04:21;6.18;;;2.60;;
18142;SDS011;9197;50.930;3.140;2022-08-03T10:07:02;9.38;;;3.13;;
18142;SDS011;9197;50.930;3.140;2022-08-03T10:09:29;9.88;;;2.97;;
18142;SDS011;9197;50.930;3.140;2022-08-03T10:11:56;7.38;;;3.05;;
18142;SDS011;9197;50.930;3.140;2022-08-03T10:14:25;9.15;;;2.75;;
18142;SDS011;9197;50.930;3.140;2022-08-03T10:16:55;8.73;;;3.00;;
18142;SDS011;9197;50.930;3.140;2022-08-03T10:19:24;8.13;;;3.20;;
18142;SDS011;9197;50.930;3.140;2022-08-03T10:21:52;7.43;;;3.28;;
18142;SDS011;9197;50.930;3.140;2022-08-03T10:24:23;7.75;;;3.00;;
18142;SDS011;9197;50.930;3.140;2022-08-03T10:26:51;8.15;;;2.55;;
18142;SDS011;9197;50.930;3.140;2022-08-03T10:29:20;6.25;;;2.88;;
18142;SDS011;9197;50.930;3.140;2022-08-03T10:31:49;6.15;;;2.95;;
18142;SDS011;9197;50.930;3.140;2022-08-03T10:34:18;4.35;;;2.50;;
18142;SDS011;9197;50.930;3.140;2022-08-03T10:36:50;4.05;;;2.22;;
18142;SDS011;9197;50.930;3.140;2022-08-03T10:39:20;6.43;;;2.72;;
18142;SDS011;9197;50.930;3.140;2022-08-03T10:41:48;6.72;;;2.50;;
18142;SDS011;9197;50.930;3.140;2022-08-03T10:44:16;6.35;;;3.22;;
18142;SDS011;9197;50.930;3.140;2022-08-03T10:46:44;6.63;;;3.50;;
18142;SDS011;9197;50.930;3.140;2022-08-03T10:49:12;4.95;;;2.50;;
18142;SDS011;9197;50.930;3.140;2022-08-03T10:51:40;4.95;;;2.88;;
18142;SDS011;9197;50.930;3.140;2022-08-03T10:54:20;5.88;;;2.88;;
18142;SDS011;9197;50.930;3.140;2022-08-03T10:57:47;8.00;;;2.65;;
18142;SDS011;9197;50.930;3.140;2022-08-03T11:00:15;10.73;;;3.05;;
18142;SDS011;9197;50.930;3.140;2022-08-03T11:05:35;6.55;;;2.90;;
18142;SDS011;9197;50.930;3.140;2022-08-03T11:13:56;4.85;;;2.38;;
18142;SDS011;9197;50.930;3.140;2022-08-03T11:16:25;4.00;;;1.95;;
18142;SDS011;9197;50.930;3.140;2022-08-03T11:18:54;5.63;;;2.55;;
18142;SDS011;9197;50.930;3.140;2022-08-03T11:21:21;4.97;;;2.40;;
18142;SDS011;9197;50.930;3.140;2022-08-03T11:24:08;4.63;;;2.25;;
18142;SDS011;9197;50.930;3.140;2022-08-03T11:26:36;4.63;;;1.98;;
18142;SDS011;9197;50.930;3.140;2022-08-03T11:31:49;3.60;;;1.77;;
18142;SDS011;9197;50.930;3.140;2022-08-03T11:34:16;5.35;;;2.00;;
18142;SDS011;9197;50.930;3.140;2022-08-03T11:39:36;5.07;;;2.00;;
18142;SDS011;9197;50.930;3.140;2022-08-03T11:44:46;4.25;;;2.65;;
18142;SDS011;9197;50.930;3.140;2022-08-03T11:47:15;5.35;;;2.03;;
18142;SDS011;9197;50.930;3.140;2022-08-03T11:49:42;9.75;;;2.38;;
18142;SDS011;9197;50.930;3.140;2022-08-03T11:52:10;5.55;;;2.45;;
18142;SDS011;9197;50.930;3.140;2022-08-03T11:54:37;5.25;;;2.42;;
18142;SDS011;9197;50.930;3.140;2022-08-03T11:57:04;5.53;;;1.75;;
18142;SDS011;9197;50.930;3.140;2022-08-03T11:59:32;5.40;;;2.20;;
18142;SDS011;9197;50.930;3.140;2022-08-03T12:02:04;5.97;;;2.20;;
18142;SDS011;9197;50.930;3.140;2022-08-03T12:04:46;7.95;;;2.40;;
18142;SDS011;9197;50.930;3.140;2022-08-03T12:07:15;8.73;;;2.22;;
18142;SDS011;9197;50.930;3.140;2022-08-03T12:09:42;7.03;;;2.38;;
18142;SDS011;9197;50.930;3.140;2022-08-03T12:12:09;5.50;;;1.98;;
18142;SDS011;9197;50.930;3.140;2022-08-03T12:14:45;5.25;;;2.00;;
18142;SDS011;9197;50.930;3.140;2022-08-03T12:17:12;5.72;;;2.05;;
18142;SDS011;9197;50.930;3.140;2022-08-03T12:19:42;3.70;;;2.03;;
18142;SDS011;9197;50.930;3.140;2022-08-03T12:22:11;7.85;;;1.83;;
18142;SDS011;9197;50.930;3.140;2022-08-03T12:24:40;4.00;;;1.83;;
18142;SDS011;9197;50.930;3.140;2022-08-03T12:27:07;10.93;;;2.20;;
18142;SDS011;9197;50.930;3.140;2022-08-03T12:29:34;5.60;;;2.33;;
18142;SDS011;9197;50.930;3.140;2022-08-03T12:32:01;4.57;;;2.10;;
18142;SDS011;9197;50.930;3.140;2022-08-03T12:34:43;4.43;;;1.83;;
18142;SDS011;9197;50.930;3.140;2022-08-03T12:37:12;2.72;;;1.65;;
18142;SDS011;9197;50.930;3.140;2022-08-03T12:39:39;5.32;;;1.88;;
18142;SDS011;9197;50.930;3.140;2022-08-03T12:42:06;8.25;;;2.10;;
18142;SDS011;9197;50.930;3.140;2022-08-03T12:44:34;3.45;;;1.83;;
18142;SDS011;9197;50.930;3.140;2022-08-03T12:47:02;5.15;;;2.13;;
18142;SDS011;9197;50.930;3.140;2022-08-03T12:49:43;5.07;;;2.00;;
18142;SDS011;9197;50.930;3.140;2022-08-03T12:52:12;3.58;;;2.58;;
18142;SDS011;9197;50.930;3.140;2022-08-03T12:54:39;5.15;;;2.45;;
18142;SDS011;9197;50.930;3.140;2022-08-03T12:57:07;2.75;;;1.58;;
18142;SDS011;9197;50.930;3.140;2022-08-03T12:59:36;8.25;;;2.15;;
18142;SDS011;9197;50.930;3.140;2022-08-03T13:02:12;3.35;;;1.70;;
18142;SDS011;9197;50.930;3.140;2022-08-03T13:04:39;3.47;;;1.42;;
18142;SDS011;9197;50.930;3.140;2022-08-03T13:07:07;3.50;;;1.48;;
18142;SDS011;9197;50.930;3.140;2022-08-03T13:09:41;5.22;;;1.63;;
18142;SDS011;9197;50.930;3.140;2022-08-03T13:12:09;2.63;;;1.73;;
18142;SDS011;9197;50.930;3.140;2022-08-03T13:14:36;6.03;;;1.67;;
18142;SDS011;9197;50.930;3.140;2022-08-03T13:17:03;4.60;;;1.77;;
18142;SDS011;9197;50.930;3.140;2022-08-03T13:19:31;2.65;;;1.65;;
18142;SDS011;9197;50.930;3.140;2022-08-03T13:21:58;3.38;;;1.80;;
18142;SDS011;9197;50.930;3.140;2022-08-03T13:24:27;2.83;;;1.20;;
18142;SDS011;9197;50.930;3.140;2022-08-03T13:26:55;1.95;;;1.35;;
18142;SDS011;9197;50.930;3.140;2022-08-03T13:29:22;2.17;;;1.42;;
18142;SDS011;9197;50.930;3.140;2022-08-03T13:31:50;5.50;;;1.40;;
18142;SDS011;9197;50.930;3.140;2022-08-03T13:34:17;3.20;;;1.55;;
18142;SDS011;9197;50.930;3.140;2022-08-03T13:36:44;1.80;;;1.42;;
18142;SDS011;9197;50.930;3.140;2022-08-03T13:39:11;6.78;;;1.90;;
18142;SDS011;9197;50.930;3.140;2022-08-03T13:41:39;2.13;;;1.50;;
18142;SDS011;9197;50.930;3.140;2022-08-03T13:44:07;4.50;;;1.65;;
18142;SDS011;9197;50.930;3.140;2022-08-03T13:46:34;6.82;;;1.58;;
18142;SDS011;9197;50.930;3.140;2022-08-03T13:49:01;6.50;;;1.67;;
18142;SDS011;9197;50.930;3.140;2022-08-03T13:51:29;7.90;;;1.88;;
18142;SDS011;9197;50.930;3.140;2022-08-03T13:53:56;7.53;;;1.45;;
18142;SDS011;9197;50.930;3.140;2022-08-03T13:56:23;2.78;;;1.52;;
18142;SDS011;9197;50.930;3.140;2022-08-03T13:58:50;3.97;;;1.77;;
18142;SDS011;9197;50.930;3.140;2022-08-03T14:01:19;5.75;;;1.75;;
18142;SDS011;9197;50.930;3.140;2022-08-03T14:03:46;5.50;;;1.40;;
18142;SDS011;9197;50.930;3.140;2022-08-03T14:06:16;5.85;;;1.92;;
18142;SDS011;9197;50.930;3.140;2022-08-03T14:08:43;3.50;;;1.50;;
18142;SDS011;9197;50.930;3.140;2022-08-03T14:11:12;3.85;;;1.60;;
18142;SDS011;9197;50.930;3.140;2022-08-03T14:13:39;5.45;;;1.73;;
18142;SDS011;9197;50.930;3.140;2022-08-03T14:16:06;4.00;;;1.95;;
18142;SDS011;9197;50.930;3.140;2022-08-03T14:18:35;2.78;;;1.52;;
18142;SDS011;9197;50.930;3.140;2022-08-03T14:21:03;5.05;;;2.20;;
18142;SDS011;9197;50.930;3.140;2022-08-03T14:23:30;4.97;;;1.70;;
18142;SDS011;9197;50.930;3.140;2022-08-03T14:25:58;2.20;;;1.40;;
18142;SDS011;9197;50.930;3.140;2022-08-03T14:28:25;3.28;;;1.20;;
18142;SDS011;9197;50.930;3.140;2022-08-03T14:30:53;2.15;;;1.60;;
18142;SDS011;9197;50.930;3.140;2022-08-03T14:33:20;1.65;;;1.02;;
18142;SDS011;9197;50.930;3.140;2022-08-03T14:35:49;4.63;;;1.35;;
18142;SDS011;9197;50.930;3.140;2022-08-03T14:38:17;2.42;;;1.50;;
18142;SDS011;9197;50.930;3.140;2022-08-03T14:40:44;4.03;;;1.38;;
18142;SDS011;9197;50.930;3.140;2022-08-03T14:43:12;5.97;;;2.03;;
18142;SDS011;9197;50.930;3.140;2022-08-03T14:45:39;3.88;;;1.67;;
18142;SDS011;9197;50.930;3.140;2022-08-03T14:48:06;5.07;;;1.83;;
18142;SDS011;9197;50.930;3.140;2022-08-03T14:50:33;5.25;;;1.73;;
18142;SDS011;9197;50.930;3.140;2022-08-03T14:53:02;4.90;;;1.70;;
18142;SDS011;9197;50.930;3.140;2022-08-03T14:55:29;3.78;;;1.70;;
18142;SDS011;9197;50.930;3.140;2022-08-03T14:57:56;3.72;;;1.60;;
18142;SDS011;9197;50.930;3.140;2022-08-03T15:00:26;5.18;;;1.00;;
18142;SDS011;9197;50.930;3.140;2022-08-03T15:02:54;2.30;;;1.50;;
18142;SDS011;9197;50.930;3.140;2022-08-03T15:05:21;3.33;;;1.45;;
18142;SDS011;9197;50.930;3.140;2022-08-03T15:07:48;3.22;;;1.38;;
18142;SDS011;9197;50.930;3.140;2022-08-03T15:10:17;3.50;;;1.10;;
18142;SDS011;9197;50.930;3.140;2022-08-03T15:12:44;3.30;;;1.23;;
18142;SDS011;9197;50.930;3.140;2022-08-03T15:15:11;2.38;;;1.23;;
18142;SDS011;9197;50.930;3.140;2022-08-03T15:17:38;3.17;;;1.40;;
18142;SDS011;9197;50.930;3.140;2022-08-03T15:20:06;5.82;;;1.48;;
18142;SDS011;9197;50.930;3.140;2022-08-03T15:22:33;5.00;;;1.30;;